sensor_id;sensor_type;location;lat;lon;timestamp;P1;durP1;ratioP1;P2;durP2;ratioP2
21432;SDS011;18592;49.708;10.900;2023-04-24T00:00:57;2.75;;;1.30;;
21432;SDS011;18592;49.708;10.900;2023-04-24T00:03:02;1.67;;;1.23;;
21432;SDS011;18592;49.708;10.900;2023-04-24T00:05:04;1.30;;;1.02;;
21432;SDS011;18592;49.708;10.900;2023-04-24T00:07:09;2.42;;;1.30;;
21432;SDS011;18592;49.708;10.900;2023-04-24T00:09:11;1.92;;;1.25;;
21432;SDS011;18592;49.708;10.900;2023-04-24T00:11:12;2.75;;;1.45;;
21432;SDS011;18592;49.708;10.900;2023-04-24T00:13:14;1.75;;;1.10;;
21432;SDS011;18592;49.708;10.900;2023-04-24T00:15:16;1.77;;;1.30;;
21432;SDS011;18592;49.708;10.900;2023-04-24T00:17:17;1.55;;;1.17;;
21432;SDS011;18592;49.708;10.900;2023-04-24T00:19:22;1.98;;;1.10;;
21432;SDS011;18592;49.708;10.900;2023-04-24T00:21:24;1.52;;;1.00;;
21432;SDS011;18592;49.708;10.900;2023-04-24T00:23:26;3.13;;;1.20;;
21432;SDS011;18592;49.708;10.900;2023-04-24T00:25:28;1.27;;;1.02;;
21432;SDS011;18592;49.708;10.900;2023-04-24T00:27:29;2.85;;;1.10;;
21432;SDS011;18592;49.708;10.900;2023-04-24T00:29:31;1.38;;;1.00;;
21432;SDS011;18592;49.708;10.900;2023-04-24T00:31:32;1.15;;;1.00;;
21432;SDS011;18592;49.708;10.900;2023-04-24T00:33:36;1.92;;;1.25;;
21432;SDS011;18592;49.708;10.900;2023-04-24T00:35:37;2.20;;;1.20;;
21432;SDS011;18592;49.708;10.900;2023-04-24T00:37:39;1.45;;;1.17;;
21432;SDS011;18592;49.708;10.900;2023-04-24T00:39:40;1.55;;;1.40;;
21432;SDS011;18592;49.708;10.900;2023-04-24T00:41:42;1.73;;;1.40;;
21432;SDS011;18592;49.708;10.900;2023-04-24T00:43:44;3.20;;;1.70;;
21432;SDS011;18592;49.708;10.900;2023-04-24T00:45:46;2.33;;;1.67;;
21432;SDS011;18592;49.708;10.900;2023-04-24T00:47:48;1.38;;;1.20;;
21432;SDS011;18592;49.708;10.900;2023-04-24T00:49:49;1.83;;;1.48;;
21432;SDS011;18592;49.708;10.900;2023-04-24T00:51:51;2.22;;;1.50;;
21432;SDS011;18592;49.708;10.900;2023-04-24T00:53:52;3.03;;;1.45;;
21432;SDS011;18592;49.708;10.900;2023-04-24T00:55:54;1.50;;;1.38;;
21432;SDS011;18592;49.708;10.900;2023-04-24T00:57:55;2.10;;;1.50;;
21432;SDS011;18592;49.708;10.900;2023-04-24T00:59:57;2.70;;;1.48;;
21432;SDS011;18592;49.708;10.900;2023-04-24T01:01:58;1.75;;;1.40;;
21432;SDS011;18592;49.708;10.900;2023-04-24T01:04:00;1.73;;;1.40;;
21432;SDS011;18592;49.708;10.900;2023-04-24T01:06:03;1.55;;;1.30;;
21432;SDS011;18592;49.708;10.900;2023-04-24T01:08:06;1.45;;;1.33;;
21432;SDS011;18592;49.708;10.900;2023-04-24T01:10:08;2.05;;;1.20;;
21432;SDS011;18592;49.708;10.900;2023-04-24T01:12:10;1.80;;;1.40;;
21432;SDS011;18592;49.708;10.900;2023-04-24T01:14:11;1.60;;;1.33;;
21432;SDS011;18592;49.708;10.900;2023-04-24T01:16:13;2.70;;;1.60;;
21432;SDS011;18592;49.708;10.900;2023-04-24T01:18:16;1.92;;;1.25;;
21432;SDS011;18592;49.708;10.900;2023-04-24T01:20:18;1.90;;;1.60;;
21432;SDS011;18592;49.708;10.900;2023-04-24T01:22:20;3.00;;;1.58;;
21432;SDS011;18592;49.708;10.900;2023-04-24T01:24:21;1.85;;;1.13;;
21432;SDS011;18592;49.708;10.900;2023-04-24T01:26:23;1.58;;;1.33;;
21432;SDS011;18592;49.708;10.900;2023-04-24T01:28:26;2.33;;;1.48;;
21432;SDS011;18592;49.708;10.900;2023-04-24T01:30:28;1.63;;;1.27;;
21432;SDS011;18592;49.708;10.900;2023-04-24T01:32:31;1.10;;;1.00;;
21432;SDS011;18592;49.708;10.900;2023-04-24T01:34:33;1.35;;;1.10;;
21432;SDS011;18592;49.708;10.900;2023-04-24T01:36:35;1.50;;;1.20;;
21432;SDS011;18592;49.708;10.900;2023-04-24T01:38:38;1.90;;;1.30;;
21432;SDS011;18592;49.708;10.900;2023-04-24T01:40:39;1.40;;;1.15;;
21432;SDS011;18592;49.708;10.900;2023-04-24T01:42:41;2.03;;;1.38;;
21432;SDS011;18592;49.708;10.900;2023-04-24T01:44:43;1.10;;;1.00;;
21432;SDS011;18592;49.708;10.900;2023-04-24T01:46:46;1.70;;;1.40;;
21432;SDS011;18592;49.708;10.900;2023-04-24T01:48:47;1.17;;;1.00;;
21432;SDS011;18592;49.708;10.900;2023-04-24T01:50:49;1.38;;;1.02;;
21432;SDS011;18592;49.708;10.900;2023-04-24T01:52:51;1.38;;;1.08;;
21432;SDS011;18592;49.708;10.900;2023-04-24T01:54:52;1.10;;;1.00;;
21432;SDS011;18592;49.708;10.900;2023-04-24T01:56:54;1.42;;;1.27;;
21432;SDS011;18592;49.708;10.900;2023-04-24T01:58:56;2.25;;;1.20;;
21432;SDS011;18592;49.708;10.900;2023-04-24T02:00:58;1.20;;;1.10;;
21432;SDS011;18592;49.708;10.900;2023-04-24T02:03:00;1.60;;;1.13;;
21432;SDS011;18592;49.708;10.900;2023-04-24T02:05:05;1.65;;;1.00;;
21432;SDS011;18592;49.708;10.900;2023-04-24T02:07:10;3.03;;;1.35;;
21432;SDS011;18592;49.708;10.900;2023-04-24T02:09:11;0.95;;;0.88;;
21432;SDS011;18592;49.708;10.900;2023-04-24T02:11:13;1.20;;;1.02;;
21432;SDS011;18592;49.708;10.900;2023-04-24T02:13:14;2.22;;;1.20;;
21432;SDS011;18592;49.708;10.900;2023-04-24T02:15:16;1.55;;;1.17;;
21432;SDS011;18592;49.708;10.900;2023-04-24T02:17:18;1.98;;;1.35;;
21432;SDS011;18592;49.708;10.900;2023-04-24T02:19:20;1.70;;;1.15;;
21432;SDS011;18592;49.708;10.900;2023-04-24T02:21:24;1.38;;;1.20;;
21432;SDS011;18592;49.708;10.900;2023-04-24T02:23:28;0.80;;;0.80;;
21432;SDS011;18592;49.708;10.900;2023-04-24T02:25:29;1.60;;;0.93;;
21432;SDS011;18592;49.708;10.900;2023-04-24T02:27:31;1.00;;;0.90;;
21432;SDS011;18592;49.708;10.900;2023-04-24T02:29:32;1.73;;;1.27;;
21432;SDS011;18592;49.708;10.900;2023-04-24T02:31:34;1.45;;;1.02;;
21432;SDS011;18592;49.708;10.900;2023-04-24T02:33:35;2.03;;;1.00;;
21432;SDS011;18592;49.708;10.900;2023-04-24T02:35:37;1.10;;;0.95;;
21432;SDS011;18592;49.708;10.900;2023-04-24T02:37:38;1.45;;;0.90;;
21432;SDS011;18592;49.708;10.900;2023-04-24T02:39:40;2.45;;;1.17;;
21432;SDS011;18592;49.708;10.900;2023-04-24T02:41:42;1.75;;;1.00;;
21432;SDS011;18592;49.708;10.900;2023-04-24T02:43:44;1.33;;;1.00;;
21432;SDS011;18592;49.708;10.900;2023-04-24T02:45:46;1.48;;;0.77;;
21432;SDS011;18592;49.708;10.900;2023-04-24T02:47:47;1.50;;;0.90;;
21432;SDS011;18592;49.708;10.900;2023-04-24T02:49:49;1.77;;;0.90;;
21432;SDS011;18592;49.708;10.900;2023-04-24T02:51:50;1.10;;;0.98;;
21432;SDS011;18592;49.708;10.900;2023-04-24T02:53:52;1.00;;;0.90;;
21432;SDS011;18592;49.708;10.900;2023-04-24T02:55:54;1.02;;;0.88;;
21432;SDS011;18592;49.708;10.900;2023-04-24T02:57:55;1.10;;;1.00;;
21432;SDS011;18592;49.708;10.900;2023-04-24T02:59:57;2.20;;;0.80;;
21432;SDS011;18592;49.708;10.900;2023-04-24T03:01:58;1.13;;;1.02;;
21432;SDS011;18592;49.708;10.900;2023-04-24T03:04:00;1.20;;;0.80;;
21432;SDS011;18592;49.708;10.900;2023-04-24T03:06:03;1.33;;;0.80;;
21432;SDS011;18592;49.708;10.900;2023-04-24T03:08:07;1.20;;;0.80;;
21432;SDS011;18592;49.708;10.900;2023-04-24T03:10:08;0.60;;;0.60;;
21432;SDS011;18592;49.708;10.900;2023-04-24T03:12:10;0.82;;;0.80;;
21432;SDS011;18592;49.708;10.900;2023-04-24T03:14:13;1.25;;;0.77;;
21432;SDS011;18592;49.708;10.900;2023-04-24T03:16:14;0.80;;;0.80;;
21432;SDS011;18592;49.708;10.900;2023-04-24T03:18:16;1.52;;;0.65;;
21432;SDS011;18592;49.708;10.900;2023-04-24T03:20:17;1.98;;;0.75;;
21432;SDS011;18592;49.708;10.900;2023-04-24T03:22:19;1.15;;;0.70;;
21432;SDS011;18592;49.708;10.900;2023-04-24T03:24:21;1.00;;;0.90;;
21432;SDS011;18592;49.708;10.900;2023-04-24T03:26:23;0.77;;;0.77;;
21432;SDS011;18592;49.708;10.900;2023-04-24T03:28:40;1.00;;;0.80;;
21432;SDS011;18592;49.708;10.900;2023-04-24T03:30:42;1.27;;;0.80;;
21432;SDS011;18592;49.708;10.900;2023-04-24T03:32:45;1.45;;;0.75;;
21432;SDS011;18592;49.708;10.900;2023-04-24T03:34:49;0.90;;;0.65;;
21432;SDS011;18592;49.708;10.900;2023-04-24T03:36:51;0.90;;;0.70;;
21432;SDS011;18592;49.708;10.900;2023-04-24T03:38:54;0.82;;;0.70;;
21432;SDS011;18592;49.708;10.900;2023-04-24T03:41:02;1.45;;;0.85;;
21432;SDS011;18592;49.708;10.900;2023-04-24T03:43:17;1.65;;;1.17;;
21432;SDS011;18592;49.708;10.900;2023-04-24T03:45:19;1.90;;;0.80;;
21432;SDS011;18592;49.708;10.900;2023-04-24T03:47:24;1.60;;;1.00;;
21432;SDS011;18592;49.708;10.900;2023-04-24T03:49:28;1.02;;;0.93;;
21432;SDS011;18592;49.708;10.900;2023-04-24T03:51:30;1.33;;;0.68;;
21432;SDS011;18592;49.708;10.900;2023-04-24T03:53:42;1.08;;;0.90;;
21432;SDS011;18592;49.708;10.900;2023-04-24T03:55:46;1.17;;;0.80;;
21432;SDS011;18592;49.708;10.900;2023-04-24T03:57:48;1.17;;;0.63;;
21432;SDS011;18592;49.708;10.900;2023-04-24T03:59:55;0.90;;;0.77;;
21432;SDS011;18592;49.708;10.900;2023-04-24T04:01:58;1.58;;;0.75;;
21432;SDS011;18592;49.708;10.900;2023-04-24T04:04:00;0.80;;;0.60;;
21432;SDS011;18592;49.708;10.900;2023-04-24T04:06:03;0.68;;;0.65;;
21432;SDS011;18592;49.708;10.900;2023-04-24T04:08:05;0.98;;;0.80;;
21432;SDS011;18592;49.708;10.900;2023-04-24T04:10:07;1.08;;;0.77;;
21432;SDS011;18592;49.708;10.900;2023-04-24T04:12:11;0.90;;;0.80;;
21432;SDS011;18592;49.708;10.900;2023-04-24T04:14:12;0.70;;;0.70;;
21432;SDS011;18592;49.708;10.900;2023-04-24T04:16:18;0.90;;;0.57;;
21432;SDS011;18592;49.708;10.900;2023-04-24T04:18:22;1.50;;;0.80;;
21432;SDS011;18592;49.708;10.900;2023-04-24T04:20:23;1.60;;;0.60;;
21432;SDS011;18592;49.708;10.900;2023-04-24T04:22:25;1.73;;;0.90;;
21432;SDS011;18592;49.708;10.900;2023-04-24T04:24:27;0.80;;;0.70;;
21432;SDS011;18592;49.708;10.900;2023-04-24T04:26:32;0.85;;;0.75;;
21432;SDS011;18592;49.708;10.900;2023-04-24T04:28:39;1.05;;;0.73;;
21432;SDS011;18592;49.708;10.900;2023-04-24T04:30:41;0.82;;;0.60;;
21432;SDS011;18592;49.708;10.900;2023-04-24T04:32:42;1.02;;;0.75;;
21432;SDS011;18592;49.708;10.900;2023-04-24T04:34:44;0.93;;;0.68;;
21432;SDS011;18592;49.708;10.900;2023-04-24T04:36:46;0.90;;;0.73;;
21432;SDS011;18592;49.708;10.900;2023-04-24T04:38:59;1.58;;;0.63;;
21432;SDS011;18592;49.708;10.900;2023-04-24T04:41:18;0.52;;;0.52;;
21432;SDS011;18592;49.708;10.900;2023-04-24T04:43:20;1.42;;;0.80;;
21432;SDS011;18592;49.708;10.900;2023-04-24T04:45:25;0.98;;;0.63;;
21432;SDS011;18592;49.708;10.900;2023-04-24T04:47:48;2.20;;;1.00;;
21432;SDS011;18592;49.708;10.900;2023-04-24T04:49:50;1.02;;;0.70;;
21432;SDS011;18592;49.708;10.900;2023-04-24T04:52:01;1.13;;;0.70;;
21432;SDS011;18592;49.708;10.900;2023-04-24T04:54:02;1.63;;;0.70;;
21432;SDS011;18592;49.708;10.900;2023-04-24T04:56:04;1.42;;;0.70;;
21432;SDS011;18592;49.708;10.900;2023-04-24T04:58:11;1.00;;;0.90;;
21432;SDS011;18592;49.708;10.900;2023-04-24T05:00:12;1.45;;;0.80;;
21432;SDS011;18592;49.708;10.900;2023-04-24T05:02:21;2.40;;;0.70;;
21432;SDS011;18592;49.708;10.900;2023-04-24T05:04:23;1.20;;;0.70;;
21432;SDS011;18592;49.708;10.900;2023-04-24T05:06:25;0.90;;;0.80;;
21432;SDS011;18592;49.708;10.900;2023-04-24T05:08:28;1.08;;;0.90;;
21432;SDS011;18592;49.708;10.900;2023-04-24T05:10:30;0.80;;;0.70;;
21432;SDS011;18592;49.708;10.900;2023-04-24T05:12:31;1.13;;;0.80;;
21432;SDS011;18592;49.708;10.900;2023-04-24T05:14:35;0.70;;;0.70;;
21432;SDS011;18592;49.708;10.900;2023-04-24T05:16:36;1.77;;;0.77;;
21432;SDS011;18592;49.708;10.900;2023-04-24T05:18:39;1.30;;;0.90;;
21432;SDS011;18592;49.708;10.900;2023-04-24T05:20:43;1.77;;;0.80;;
21432;SDS011;18592;49.708;10.900;2023-04-24T05:22:45;1.00;;;0.80;;
21432;SDS011;18592;49.708;10.900;2023-04-24T05:24:48;0.82;;;0.77;;
21432;SDS011;18592;49.708;10.900;2023-04-24T05:27:08;1.23;;;0.80;;
21432;SDS011;18592;49.708;10.900;2023-04-24T05:29:13;1.77;;;0.80;;
21432;SDS011;18592;49.708;10.900;2023-04-24T05:31:16;1.67;;;0.90;;
21432;SDS011;18592;49.708;10.900;2023-04-24T05:33:19;0.82;;;0.65;;
21432;SDS011;18592;49.708;10.900;2023-04-24T05:35:20;1.42;;;0.73;;
21432;SDS011;18592;49.708;10.900;2023-04-24T05:37:22;0.80;;;0.77;;
21432;SDS011;18592;49.708;10.900;2023-04-24T05:39:23;1.90;;;0.80;;
21432;SDS011;18592;49.708;10.900;2023-04-24T05:41:27;1.50;;;0.80;;
21432;SDS011;18592;49.708;10.900;2023-04-24T05:43:28;1.05;;;0.80;;
21432;SDS011;18592;49.708;10.900;2023-04-24T05:45:30;1.25;;;0.75;;
21432;SDS011;18592;49.708;10.900;2023-04-24T05:47:32;1.08;;;0.80;;
21432;SDS011;18592;49.708;10.900;2023-04-24T05:49:34;0.90;;;0.80;;
21432;SDS011;18592;49.708;10.900;2023-04-24T05:51:36;1.35;;;0.68;;
21432;SDS011;18592;49.708;10.900;2023-04-24T05:53:38;0.95;;;0.70;;
21432;SDS011;18592;49.708;10.900;2023-04-24T05:55:40;1.00;;;0.90;;
21432;SDS011;18592;49.708;10.900;2023-04-24T05:57:41;1.33;;;0.90;;
21432;SDS011;18592;49.708;10.900;2023-04-24T05:59:43;1.15;;;0.88;;
21432;SDS011;18592;49.708;10.900;2023-04-24T06:01:45;1.65;;;0.88;;
21432;SDS011;18592;49.708;10.900;2023-04-24T06:03:53;1.45;;;0.75;;
21432;SDS011;18592;49.708;10.900;2023-04-24T06:05:55;1.10;;;0.80;;
21432;SDS011;18592;49.708;10.900;2023-04-24T06:07:57;1.85;;;1.00;;
21432;SDS011;18592;49.708;10.900;2023-04-24T06:10:03;1.25;;;0.90;;
21432;SDS011;18592;49.708;10.900;2023-04-24T06:12:12;2.17;;;0.90;;
21432;SDS011;18592;49.708;10.900;2023-04-24T06:14:34;0.93;;;0.82;;
21432;SDS011;18592;49.708;10.900;2023-04-24T06:16:52;1.90;;;0.90;;
21432;SDS011;18592;49.708;10.900;2023-04-24T06:19:06;1.45;;;0.70;;
21432;SDS011;18592;49.708;10.900;2023-04-24T06:21:09;1.30;;;0.68;;
21432;SDS011;18592;49.708;10.900;2023-04-24T06:23:10;1.55;;;0.90;;
21432;SDS011;18592;49.708;10.900;2023-04-24T06:25:12;0.88;;;0.60;;
21432;SDS011;18592;49.708;10.900;2023-04-24T06:27:13;1.63;;;0.90;;
21432;SDS011;18592;49.708;10.900;2023-04-24T06:29:16;1.23;;;0.60;;
21432;SDS011;18592;49.708;10.900;2023-04-24T06:31:17;1.60;;;0.70;;
21432;SDS011;18592;49.708;10.900;2023-04-24T06:33:19;0.80;;;0.50;;
21432;SDS011;18592;49.708;10.900;2023-04-24T06:35:23;0.95;;;0.50;;
21432;SDS011;18592;49.708;10.900;2023-04-24T06:37:25;0.88;;;0.50;;
21432;SDS011;18592;49.708;10.900;2023-04-24T06:39:27;0.40;;;0.40;;
21432;SDS011;18592;49.708;10.900;2023-04-24T06:41:28;1.40;;;0.70;;
21432;SDS011;18592;49.708;10.900;2023-04-24T06:43:30;0.80;;;0.40;;
21432;SDS011;18592;49.708;10.900;2023-04-24T06:45:32;0.60;;;0.50;;
21432;SDS011;18592;49.708;10.900;2023-04-24T06:47:34;2.80;;;0.50;;
21432;SDS011;18592;49.708;10.900;2023-04-24T06:49:38;1.13;;;0.50;;
21432;SDS011;18592;49.708;10.900;2023-04-24T06:51:41;1.33;;;0.50;;
21432;SDS011;18592;49.708;10.900;2023-04-24T06:53:42;1.55;;;0.50;;
21432;SDS011;18592;49.708;10.900;2023-04-24T06:55:44;0.55;;;0.30;;
21432;SDS011;18592;49.708;10.900;2023-04-24T06:57:47;0.50;;;0.47;;
21432;SDS011;18592;49.708;10.900;2023-04-24T06:59:48;0.73;;;0.50;;
21432;SDS011;18592;49.708;10.900;2023-04-24T07:01:50;0.50;;;0.40;;
21432;SDS011;18592;49.708;10.900;2023-04-24T07:03:56;1.52;;;0.57;;
21432;SDS011;18592;49.708;10.900;2023-04-24T07:05:57;1.17;;;0.50;;
21432;SDS011;18592;49.708;10.900;2023-04-24T07:07:59;1.02;;;0.35;;
21432;SDS011;18592;49.708;10.900;2023-04-24T07:10:01;0.40;;;0.40;;
21432;SDS011;18592;49.708;10.900;2023-04-24T07:12:05;1.02;;;0.60;;
21432;SDS011;18592;49.708;10.900;2023-04-24T07:14:07;0.40;;;0.40;;
21432;SDS011;18592;49.708;10.900;2023-04-24T07:16:09;1.38;;;0.50;;
21432;SDS011;18592;49.708;10.900;2023-04-24T07:18:13;1.75;;;0.65;;
21432;SDS011;18592;49.708;10.900;2023-04-24T07:20:15;1.20;;;0.60;;
21432;SDS011;18592;49.708;10.900;2023-04-24T07:22:17;0.47;;;0.40;;
21432;SDS011;18592;49.708;10.900;2023-04-24T07:24:18;0.43;;;0.40;;
21432;SDS011;18592;49.708;10.900;2023-04-24T07:26:22;0.52;;;0.52;;
21432;SDS011;18592;49.708;10.900;2023-04-24T07:28:24;0.93;;;0.50;;
21432;SDS011;18592;49.708;10.900;2023-04-24T07:30:26;0.82;;;0.50;;
21432;SDS011;18592;49.708;10.900;2023-04-24T07:32:30;1.48;;;0.55;;
21432;SDS011;18592;49.708;10.900;2023-04-24T07:34:31;0.55;;;0.55;;
21432;SDS011;18592;49.708;10.900;2023-04-24T07:36:33;0.80;;;0.50;;
21432;SDS011;18592;49.708;10.900;2023-04-24T07:38:34;0.50;;;0.50;;
21432;SDS011;18592;49.708;10.900;2023-04-24T07:40:36;0.65;;;0.52;;
21432;SDS011;18592;49.708;10.900;2023-04-24T07:42:38;0.73;;;0.65;;
21432;SDS011;18592;49.708;10.900;2023-04-24T07:44:39;0.45;;;0.45;;
21432;SDS011;18592;49.708;10.900;2023-04-24T07:46:41;0.80;;;0.50;;
21432;SDS011;18592;49.708;10.900;2023-04-24T07:48:42;0.85;;;0.60;;
21432;SDS011;18592;49.708;10.900;2023-04-24T07:50:44;0.70;;;0.70;;
21432;SDS011;18592;49.708;10.900;2023-04-24T07:52:46;0.68;;;0.60;;
21432;SDS011;18592;49.708;10.900;2023-04-24T07:54:48;1.13;;;0.88;;
21432;SDS011;18592;49.708;10.900;2023-04-24T07:56:50;1.80;;;0.70;;
21432;SDS011;18592;49.708;10.900;2023-04-24T07:58:52;1.02;;;0.70;;
21432;SDS011;18592;49.708;10.900;2023-04-24T08:00:53;0.75;;;0.70;;
21432;SDS011;18592;49.708;10.900;2023-04-24T08:02:55;1.65;;;0.90;;
21432;SDS011;18592;49.708;10.900;2023-04-24T08:04:57;0.80;;;0.80;;
21432;SDS011;18592;49.708;10.900;2023-04-24T08:07:00;0.60;;;0.60;;
21432;SDS011;18592;49.708;10.900;2023-04-24T08:09:02;2.33;;;0.80;;
21432;SDS011;18592;49.708;10.900;2023-04-24T08:11:04;1.27;;;0.77;;
21432;SDS011;18592;49.708;10.900;2023-04-24T08:13:05;1.35;;;0.80;;
21432;SDS011;18592;49.708;10.900;2023-04-24T08:15:07;1.17;;;0.70;;
21432;SDS011;18592;49.708;10.900;2023-04-24T08:17:09;0.85;;;0.80;;
21432;SDS011;18592;49.708;10.900;2023-04-24T08:19:10;0.80;;;0.80;;
21432;SDS011;18592;49.708;10.900;2023-04-24T08:21:12;1.25;;;1.00;;
21432;SDS011;18592;49.708;10.900;2023-04-24T08:23:18;1.38;;;1.05;;
21432;SDS011;18592;49.708;10.900;2023-04-24T08:25:19;0.82;;;0.80;;
21432;SDS011;18592;49.708;10.900;2023-04-24T08:27:21;2.03;;;1.30;;
21432;SDS011;18592;49.708;10.900;2023-04-24T08:29:22;1.10;;;0.98;;
21432;SDS011;18592;49.708;10.900;2023-04-24T08:31:24;1.17;;;0.90;;
21432;SDS011;18592;49.708;10.900;2023-04-24T08:33:27;1.42;;;1.20;;
21432;SDS011;18592;49.708;10.900;2023-04-24T08:35:34;1.60;;;1.27;;
21432;SDS011;18592;49.708;10.900;2023-04-24T08:37:35;1.20;;;1.10;;
21432;SDS011;18592;49.708;10.900;2023-04-24T08:39:37;1.60;;;1.20;;
21432;SDS011;18592;49.708;10.900;2023-04-24T08:41:39;1.33;;;1.00;;
21432;SDS011;18592;49.708;10.900;2023-04-24T08:43:45;2.15;;;1.40;;
21432;SDS011;18592;49.708;10.900;2023-04-24T08:45:47;1.60;;;1.00;;
21432;SDS011;18592;49.708;10.900;2023-04-24T08:47:49;1.45;;;1.10;;
21432;SDS011;18592;49.708;10.900;2023-04-24T08:49:51;1.70;;;1.48;;
21432;SDS011;18592;49.708;10.900;2023-04-24T08:51:53;1.58;;;1.20;;
21432;SDS011;18592;49.708;10.900;2023-04-24T08:53:55;2.22;;;1.30;;
21432;SDS011;18592;49.708;10.900;2023-04-24T08:55:58;1.27;;;1.17;;
21432;SDS011;18592;49.708;10.900;2023-04-24T08:58:02;1.92;;;1.35;;
21432;SDS011;18592;49.708;10.900;2023-04-24T09:00:04;1.33;;;1.23;;
21432;SDS011;18592;49.708;10.900;2023-04-24T09:02:12;2.63;;;1.20;;
21432;SDS011;18592;49.708;10.900;2023-04-24T09:04:15;1.35;;;1.10;;
21432;SDS011;18592;49.708;10.900;2023-04-24T09:06:19;1.88;;;1.02;;
21432;SDS011;18592;49.708;10.900;2023-04-24T09:08:24;2.78;;;1.23;;
21432;SDS011;18592;49.708;10.900;2023-04-24T09:10:26;1.48;;;1.10;;
21432;SDS011;18592;49.708;10.900;2023-04-24T09:12:28;1.67;;;1.13;;
21432;SDS011;18592;49.708;10.900;2023-04-24T09:14:30;4.55;;;1.20;;
21432;SDS011;18592;49.708;10.900;2023-04-24T09:16:33;1.48;;;1.20;;
21432;SDS011;18592;49.708;10.900;2023-04-24T09:18:37;1.23;;;1.05;;
21432;SDS011;18592;49.708;10.900;2023-04-24T09:21:00;1.80;;;1.10;;
21432;SDS011;18592;49.708;10.900;2023-04-24T09:23:04;1.40;;;1.13;;
21432;SDS011;18592;49.708;10.900;2023-04-24T09:25:07;1.48;;;1.00;;
21432;SDS011;18592;49.708;10.900;2023-04-24T09:27:10;1.23;;;1.00;;
21432;SDS011;18592;49.708;10.900;2023-04-24T09:29:16;2.55;;;1.42;;
21432;SDS011;18592;49.708;10.900;2023-04-24T09:31:19;2.75;;;1.15;;
21432;SDS011;18592;49.708;10.900;2023-04-24T09:33:23;1.30;;;1.20;;
21432;SDS011;18592;49.708;10.900;2023-04-24T09:35:24;1.73;;;1.10;;
21432;SDS011;18592;49.708;10.900;2023-04-24T09:37:27;1.98;;;1.23;;
21432;SDS011;18592;49.708;10.900;2023-04-24T09:39:30;1.15;;;1.05;;
21432;SDS011;18592;49.708;10.900;2023-04-24T09:41:32;1.70;;;1.20;;
21432;SDS011;18592;49.708;10.900;2023-04-24T09:43:34;1.75;;;1.27;;
21432;SDS011;18592;49.708;10.900;2023-04-24T09:45:37;1.67;;;1.20;;
21432;SDS011;18592;49.708;10.900;2023-04-24T09:47:41;1.80;;;1.25;;
21432;SDS011;18592;49.708;10.900;2023-04-24T09:49:43;2.95;;;1.30;;
21432;SDS011;18592;49.708;10.900;2023-04-24T09:51:45;1.92;;;1.30;;
21432;SDS011;18592;49.708;10.900;2023-04-24T09:53:47;2.08;;;1.00;;
21432;SDS011;18592;49.708;10.900;2023-04-24T09:55:55;2.10;;;1.10;;
21432;SDS011;18592;49.708;10.900;2023-04-24T09:58:02;1.73;;;0.98;;
21432;SDS011;18592;49.708;10.900;2023-04-24T10:00:06;1.40;;;1.13;;
21432;SDS011;18592;49.708;10.900;2023-04-24T10:02:18;2.28;;;1.15;;
21432;SDS011;18592;49.708;10.900;2023-04-24T10:04:24;1.45;;;0.85;;
21432;SDS011;18592;49.708;10.900;2023-04-24T10:06:32;1.55;;;1.05;;
21432;SDS011;18592;49.708;10.900;2023-04-24T10:08:35;1.60;;;1.10;;
21432;SDS011;18592;49.708;10.900;2023-04-24T10:10:39;1.80;;;1.00;;
21432;SDS011;18592;49.708;10.900;2023-04-24T10:12:45;1.48;;;1.20;;
21432;SDS011;18592;49.708;10.900;2023-04-24T10:14:48;1.60;;;1.00;;
21432;SDS011;18592;49.708;10.900;2023-04-24T10:16:53;0.80;;;0.80;;
21432;SDS011;18592;49.708;10.900;2023-04-24T10:18:55;1.02;;;0.70;;
21432;SDS011;18592;49.708;10.900;2023-04-24T10:21:00;0.90;;;0.60;;
21432;SDS011;18592;49.708;10.900;2023-04-24T10:23:04;2.33;;;0.50;;
21432;SDS011;18592;49.708;10.900;2023-04-24T10:25:06;0.68;;;0.60;;
21432;SDS011;18592;49.708;10.900;2023-04-24T10:27:08;0.60;;;0.60;;
21432;SDS011;18592;49.708;10.900;2023-04-24T10:29:11;0.60;;;0.60;;
21432;SDS011;18592;49.708;10.900;2023-04-24T10:31:14;0.95;;;0.63;;
21432;SDS011;18592;49.708;10.900;2023-04-24T10:33:16;1.10;;;0.60;;
21432;SDS011;18592;49.708;10.900;2023-04-24T10:35:18;0.55;;;0.55;;
21432;SDS011;18592;49.708;10.900;2023-04-24T10:37:24;0.98;;;0.55;;
21432;SDS011;18592;49.708;10.900;2023-04-24T10:39:27;0.73;;;0.60;;
21432;SDS011;18592;49.708;10.900;2023-04-24T10:41:30;0.80;;;0.70;;
21432;SDS011;18592;49.708;10.900;2023-04-24T10:43:31;1.42;;;0.60;;
21432;SDS011;18592;49.708;10.900;2023-04-24T10:45:35;2.15;;;0.70;;
21432;SDS011;18592;49.708;10.900;2023-04-24T10:47:40;1.77;;;0.90;;
21432;SDS011;18592;49.708;10.900;2023-04-24T10:49:42;0.73;;;0.73;;
21432;SDS011;18592;49.708;10.900;2023-04-24T10:51:48;0.73;;;0.73;;
21432;SDS011;18592;49.708;10.900;2023-04-24T10:53:54;1.10;;;0.82;;
21432;SDS011;18592;49.708;10.900;2023-04-24T10:56:06;0.80;;;0.80;;
21432;SDS011;18592;49.708;10.900;2023-04-24T10:58:10;0.85;;;0.85;;
21432;SDS011;18592;49.708;10.900;2023-04-24T11:00:14;0.88;;;0.77;;
21432;SDS011;18592;49.708;10.900;2023-04-24T11:02:17;1.00;;;1.00;;
21432;SDS011;18592;49.708;10.900;2023-04-24T11:04:28;1.63;;;1.00;;
21432;SDS011;18592;49.708;10.900;2023-04-24T11:06:33;1.92;;;1.00;;
21432;SDS011;18592;49.708;10.900;2023-04-24T11:08:44;1.50;;;1.10;;
21432;SDS011;18592;49.708;10.900;2023-04-24T11:10:47;1.33;;;1.10;;
21432;SDS011;18592;49.708;10.900;2023-04-24T11:12:55;1.33;;;1.02;;
21432;SDS011;18592;49.708;10.900;2023-04-24T11:16:59;1.00;;;0.90;;
21432;SDS011;18592;49.708;10.900;2023-04-24T11:19:05;1.20;;;1.10;;
21432;SDS011;18592;49.708;10.900;2023-04-24T11:21:17;0.77;;;0.77;;
21432;SDS011;18592;49.708;10.900;2023-04-24T11:23:19;0.88;;;0.70;;
21432;SDS011;18592;49.708;10.900;2023-04-24T11:25:21;1.90;;;1.10;;
21432;SDS011;18592;49.708;10.900;2023-04-24T11:27:26;1.38;;;1.10;;
21432;SDS011;18592;49.708;10.900;2023-04-24T11:29:40;0.80;;;0.80;;
21432;SDS011;18592;49.708;10.900;2023-04-24T11:31:59;2.75;;;0.90;;
21432;SDS011;18592;49.708;10.900;2023-04-24T11:34:16;1.35;;;0.98;;
21432;SDS011;18592;49.708;10.900;2023-04-24T11:36:19;1.20;;;1.10;;
21432;SDS011;18592;49.708;10.900;2023-04-24T11:38:20;1.27;;;1.10;;
21432;SDS011;18592;49.708;10.900;2023-04-24T11:40:25;2.10;;;1.10;;
21432;SDS011;18592;49.708;10.900;2023-04-24T11:42:27;1.00;;;0.90;;
21432;SDS011;18592;49.708;10.900;2023-04-24T11:44:29;1.20;;;1.08;;
21432;SDS011;18592;49.708;10.900;2023-04-24T11:46:33;1.10;;;1.00;;
21432;SDS011;18592;49.708;10.900;2023-04-24T11:48:35;2.22;;;1.30;;
21432;SDS011;18592;49.708;10.900;2023-04-24T11:50:46;1.38;;;1.27;;
21432;SDS011;18592;49.708;10.900;2023-04-24T11:52:48;1.30;;;1.15;;
21432;SDS011;18592;49.708;10.900;2023-04-24T11:54:51;1.92;;;1.15;;
21432;SDS011;18592;49.708;10.900;2023-04-24T11:56:53;1.25;;;1.00;;
21432;SDS011;18592;49.708;10.900;2023-04-24T11:58:54;1.73;;;1.10;;
21432;SDS011;18592;49.708;10.900;2023-04-24T12:00:56;1.10;;;1.00;;
21432;SDS011;18592;49.708;10.900;2023-04-24T12:05:20;1.67;;;1.00;;
21432;SDS011;18592;49.708;10.900;2023-04-24T12:07:26;2.50;;;0.95;;
21432;SDS011;18592;49.708;10.900;2023-04-24T12:09:28;1.38;;;0.88;;
21432;SDS011;18592;49.708;10.900;2023-04-24T12:11:29;1.50;;;1.00;;
21432;SDS011;18592;49.708;10.900;2023-04-24T12:13:32;3.30;;;1.10;;
21432;SDS011;18592;49.708;10.900;2023-04-24T12:15:34;1.80;;;1.10;;